sensor_id;sensor_type;location;lat;lon;timestamp;temperature;humidity
20057;DHT22;10189;49.546;7.906;2023-08-01T00:00:04;15.80;99.90
20057;DHT22;10189;49.546;7.906;2023-08-01T00:02:39;15.90;99.90
20057;DHT22;10189;49.546;7.906;2023-08-01T00:05:08;15.90;99.90
20057;DHT22;10189;49.546;7.906;2023-08-01T00:07:34;15.90;99.90
20057;DHT22;10189;49.546;7.906;2023-08-01T00:10:00;15.80;99.90
20057;DHT22;10189;49.546;7.906;2023-08-01T00:12:27;15.90;99.90
20057;DHT22;10189;49.546;7.906;2023-08-01T00:14:53;15.90;99.90
20057;DHT22;10189;49.546;7.906;2023-08-01T00:17:19;15.80;99.90
20057;DHT22;10189;49.546;7.906;2023-08-01T00:19:45;15.90;99.90
20057;DHT22;10189;49.546;7.906;2023-08-01T00:22:10;15.90;99.90
20057;DHT22;10189;49.546;7.906;2023-08-01T00:24:37;15.90;99.90
20057;DHT22;10189;49.546;7.906;2023-08-01T00:27:03;15.90;99.90
20057;DHT22;10189;49.546;7.906;2023-08-01T00:29:30;15.90;99.90
20057;DHT22;10189;49.546;7.906;2023-08-01T00:31:56;16.00;99.90
20057;DHT22;10189;49.546;7.906;2023-08-01T00:34:21;16.00;99.90
20057;DHT22;10189;49.546;7.906;2023-08-01T00:36:47;16.00;99.90
20057;DHT22;10189;49.546;7.906;2023-08-01T00:39:14;16.00;99.90
20057;DHT22;10189;49.546;7.906;2023-08-01T00:41:40;15.90;99.90
20057;DHT22;10189;49.546;7.906;2023-08-01T00:44:06;16.00;99.90
20057;DHT22;10189;49.546;7.906;2023-08-01T00:46:32;16.00;99.90
20057;DHT22;10189;49.546;7.906;2023-08-01T00:48:59;16.00;99.90
20057;DHT22;10189;49.546;7.906;2023-08-01T00:51:26;16.00;99.90
20057;DHT22;10189;49.546;7.906;2023-08-01T00:53:53;15.90;99.90
20057;DHT22;10189;49.546;7.906;2023-08-01T00:56:19;15.90;99.90
20057;DHT22;10189;49.546;7.906;2023-08-01T00:58:45;15.90;99.90
20057;DHT22;10189;49.546;7.906;2023-08-01T01:01:11;16.00;99.90
20057;DHT22;10189;49.546;7.906;2023-08-01T01:03:37;15.90;99.90
20057;DHT22;10189;49.546;7.906;2023-08-01T01:06:18;16.00;99.90
20057;DHT22;10189;49.546;7.906;2023-08-01T01:08:49;16.00;99.90
20057;DHT22;10189;49.546;7.906;2023-08-01T01:11:15;16.00;99.90
20057;DHT22;10189;49.546;7.906;2023-08-01T01:13:41;16.00;99.90
20057;DHT22;10189;49.546;7.906;2023-08-01T01:16:07;16.00;99.90
20057;DHT22;10189;49.546;7.906;2023-08-01T01:18:33;16.00;99.90
20057;DHT22;10189;49.546;7.906;2023-08-01T01:20:59;16.00;99.90
20057;DHT22;10189;49.546;7.906;2023-08-01T01:23:26;16.00;99.90
20057;DHT22;10189;49.546;7.906;2023-08-01T01:25:53;16.00;99.90
20057;DHT22;10189;49.546;7.906;2023-08-01T01:28:22;16.00;99.90
20057;DHT22;10189;49.546;7.906;2023-08-01T01:30:49;16.00;99.90
20057;DHT22;10189;49.546;7.906;2023-08-01T01:33:15;16.10;99.90
20057;DHT22;10189;49.546;7.906;2023-08-01T01:35:41;16.00;99.90
20057;DHT22;10189;49.546;7.906;2023-08-01T01:38:08;16.10;99.90
20057;DHT22;10189;49.546;7.906;2023-08-01T01:40:34;16.10;99.90
20057;DHT22;10189;49.546;7.906;2023-08-01T01:43:01;16.00;99.90
20057;DHT22;10189;49.546;7.906;2023-08-01T01:45:27;16.00;99.90
20057;DHT22;10189;49.546;7.906;2023-08-01T01:47:53;15.90;99.90
20057;DHT22;10189;49.546;7.906;2023-08-01T01:50:19;15.90;99.90
20057;DHT22;10189;49.546;7.906;2023-08-01T01:52:45;15.90;99.90
20057;DHT22;10189;49.546;7.906;2023-08-01T01:55:12;15.90;99.90
20057;DHT22;10189;49.546;7.906;2023-08-01T01:57:39;15.90;99.90
20057;DHT22;10189;49.546;7.906;2023-08-01T02:00:06;15.90;99.90
20057;DHT22;10189;49.546;7.906;2023-08-01T02:02:44;15.90;99.90
20057;DHT22;10189;49.546;7.906;2023-08-01T02:05:10;15.90;99.90
20057;DHT22;10189;49.546;7.906;2023-08-01T02:07:36;15.90;99.90
20057;DHT22;10189;49.546;7.906;2023-08-01T02:10:02;15.90;99.90
20057;DHT22;10189;49.546;7.906;2023-08-01T02:12:31;15.90;99.90
20057;DHT22;10189;49.546;7.906;2023-08-01T02:14:58;15.90;99.90
20057;DHT22;10189;49.546;7.906;2023-08-01T02:17:24;15.90;99.90
20057;DHT22;10189;49.546;7.906;2023-08-01T02:19:50;15.90;99.90
20057;DHT22;10189;49.546;7.906;2023-08-01T02:22:16;15.90;99.90
20057;DHT22;10189;49.546;7.906;2023-08-01T02:24:42;15.80;99.90
20057;DHT22;10189;49.546;7.906;2023-08-01T02:27:08;15.90;99.90
20057;DHT22;10189;49.546;7.906;2023-08-01T02:29:34;15.80;99.90
20057;DHT22;10189;49.546;7.906;2023-08-01T02:32:00;15.90;99.90
20057;DHT22;10189;49.546;7.906;2023-08-01T02:34:26;15.90;99.90
20057;DHT22;10189;49.546;7.906;2023-08-01T02:36:52;15.90;99.90
20057;DHT22;10189;49.546;7.906;2023-08-01T02:39:18;15.80;99.90
20057;DHT22;10189;49.546;7.906;2023-08-01T02:41:44;15.90;99.90
20057;DHT22;10189;49.546;7.906;2023-08-01T02:44:10;15.90;99.90
20057;DHT22;10189;49.546;7.906;2023-08-01T02:46:36;15.90;99.90
20057;DHT22;10189;49.546;7.906;2023-08-01T02:49:02;15.90;99.90
20057;DHT22;10189;49.546;7.906;2023-08-01T02:51:28;15.90;99.90
20057;DHT22;10189;49.546;7.906;2023-08-01T02:53:54;15.90;99.90
20057;DHT22;10189;49.546;7.906;2023-08-01T02:56:20;15.90;99.90
20057;DHT22;10189;49.546;7.906;2023-08-01T02:58:45;15.90;99.90
20057;DHT22;10189;49.546;7.906;2023-08-01T03:01:11;15.90;99.90
20057;DHT22;10189;49.546;7.906;2023-08-01T03:03:39;15.80;99.90
20057;DHT22;10189;49.546;7.906;2023-08-01T03:06:05;15.90;99.90
20057;DHT22;10189;49.546;7.906;2023-08-01T03:08:30;15.90;99.90
20057;DHT22;10189;49.546;7.906;2023-08-01T03:10:57;15.90;99.90
20057;DHT22;10189;49.546;7.906;2023-08-01T03:13:23;15.90;99.90
20057;DHT22;10189;49.546;7.906;2023-08-01T03:15:49;15.90;99.90
20057;DHT22;10189;49.546;7.906;2023-08-01T03:18:15;15.90;99.90
20057;DHT22;10189;49.546;7.906;2023-08-01T03:20:41;15.90;99.90
20057;DHT22;10189;49.546;7.906;2023-08-01T03:23:07;15.90;99.90
20057;DHT22;10189;49.546;7.906;2023-08-01T03:25:32;15.90;99.90
20057;DHT22;10189;49.546;7.906;2023-08-01T03:27:58;15.90;99.90
20057;DHT22;10189;49.546;7.906;2023-08-01T03:30:24;15.90;99.90
20057;DHT22;10189;49.546;7.906;2023-08-01T03:32:51;15.90;99.90
20057;DHT22;10189;49.546;7.906;2023-08-01T03:35:17;15.90;99.90
20057;DHT22;10189;49.546;7.906;2023-08-01T03:37:43;15.90;99.90
20057;DHT22;10189;49.546;7.906;2023-08-01T03:40:09;15.90;99.90
20057;DHT22;10189;49.546;7.906;2023-08-01T03:42:36;15.90;99.90
20057;DHT22;10189;49.546;7.906;2023-08-01T03:45:03;15.90;99.90
20057;DHT22;10189;49.546;7.906;2023-08-01T03:47:31;15.90;99.90
20057;DHT22;10189;49.546;7.906;2023-08-01T03:49:57;15.90;99.90
20057;DHT22;10189;49.546;7.906;2023-08-01T03:52:24;15.80;99.90
20057;DHT22;10189;49.546;7.906;2023-08-01T03:54:53;15.80;99.90
20057;DHT22;10189;49.546;7.906;2023-08-01T03:57:20;15.80;99.90
20057;DHT22;10189;49.546;7.906;2023-08-01T03:59:46;15.80;99.90
20057;DHT22;10189;49.546;7.906;2023-08-01T04:02:12;15.80;99.90
20057;DHT22;10189;49.546;7.906;2023-08-01T04:04:38;15.80;99.90
20057;DHT22;10189;49.546;7.906;2023-08-01T04:07:04;15.80;99.90
20057;DHT22;10189;49.546;7.906;2023-08-01T04:09:30;15.80;99.90
20057;DHT22;10189;49.546;7.906;2023-08-01T04:11:56;15.80;99.90
20057;DHT22;10189;49.546;7.906;2023-08-01T04:14:22;15.80;99.90
20057;DHT22;10189;49.546;7.906;2023-08-01T04:16:48;15.80;99.90
20057;DHT22;10189;49.546;7.906;2023-08-01T04:19:14;15.80;99.90
20057;DHT22;10189;49.546;7.906;2023-08-01T04:21:40;15.80;99.90
20057;DHT22;10189;49.546;7.906;2023-08-01T04:24:05;15.80;99.90
20057;DHT22;10189;49.546;7.906;2023-08-01T04:26:31;15.70;99.90
20057;DHT22;10189;49.546;7.906;2023-08-01T04:28:57;15.60;99.90
20057;DHT22;10189;49.546;7.906;2023-08-01T04:31:23;15.60;99.90
20057;DHT22;10189;49.546;7.906;2023-08-01T04:33:49;15.50;99.90
20057;DHT22;10189;49.546;7.906;2023-08-01T04:36:14;15.50;99.90
20057;DHT22;10189;49.546;7.906;2023-08-01T04:38:42;15.40;99.90
20057;DHT22;10189;49.546;7.906;2023-08-01T04:41:07;15.40;99.90
20057;DHT22;10189;49.546;7.906;2023-08-01T04:43:33;15.40;99.90
20057;DHT22;10189;49.546;7.906;2023-08-01T04:45:59;15.40;99.90
20057;DHT22;10189;49.546;7.906;2023-08-01T04:48:25;15.40;99.90
20057;DHT22;10189;49.546;7.906;2023-08-01T04:50:51;15.30;99.90
20057;DHT22;10189;49.546;7.906;2023-08-01T04:53:16;15.30;99.90
20057;DHT22;10189;49.546;7.906;2023-08-01T04:55:42;15.20;99.90
20057;DHT22;10189;49.546;7.906;2023-08-01T04:58:08;15.20;99.90
20057;DHT22;10189;49.546;7.906;2023-08-01T05:00:34;15.20;99.90
20057;DHT22;10189;49.546;7.906;2023-08-01T05:03:00;15.30;99.90
20057;DHT22;10189;49.546;7.906;2023-08-01T05:05:26;15.20;99.90
20057;DHT22;10189;49.546;7.906;2023-08-01T05:07:52;15.20;99.90
20057;DHT22;10189;49.546;7.906;2023-08-01T05:10:18;15.10;99.90
20057;DHT22;10189;49.546;7.906;2023-08-01T05:12:43;15.10;99.90
20057;DHT22;10189;49.546;7.906;2023-08-01T05:15:09;15.10;99.90
20057;DHT22;10189;49.546;7.906;2023-08-01T05:17:35;15.10;99.90
20057;DHT22;10189;49.546;7.906;2023-08-01T05:20:01;15.10;99.90
20057;DHT22;10189;49.546;7.906;2023-08-01T05:22:29;15.00;99.90
20057;DHT22;10189;49.546;7.906;2023-08-01T05:24:55;15.10;99.90
20057;DHT22;10189;49.546;7.906;2023-08-01T05:27:21;15.00;99.90
20057;DHT22;10189;49.546;7.906;2023-08-01T05:29:47;15.00;99.90
20057;DHT22;10189;49.546;7.906;2023-08-01T05:32:13;15.10;99.90
20057;DHT22;10189;49.546;7.906;2023-08-01T05:34:39;15.20;99.90
20057;DHT22;10189;49.546;7.906;2023-08-01T05:37:05;15.20;99.90
20057;DHT22;10189;49.546;7.906;2023-08-01T05:39:31;15.10;99.90
20057;DHT22;10189;49.546;7.906;2023-08-01T05:41:57;15.10;99.90
20057;DHT22;10189;49.546;7.906;2023-08-01T05:44:22;15.10;99.90
20057;DHT22;10189;49.546;7.906;2023-08-01T05:46:48;15.10;99.90
20057;DHT22;10189;49.546;7.906;2023-08-01T05:49:14;15.00;99.90
20057;DHT22;10189;49.546;7.906;2023-08-01T05:51:40;15.00;99.90
20057;DHT22;10189;49.546;7.906;2023-08-01T05:54:06;15.00;99.90
20057;DHT22;10189;49.546;7.906;2023-08-01T05:56:32;15.10;99.90
20057;DHT22;10189;49.546;7.906;2023-08-01T05:58:58;15.10;99.90
20057;DHT22;10189;49.546;7.906;2023-08-01T06:01:24;15.10;99.90
20057;DHT22;10189;49.546;7.906;2023-08-01T06:03:50;15.10;99.90
20057;DHT22;10189;49.546;7.906;2023-08-01T06:06:16;15.10;99.90
20057;DHT22;10189;49.546;7.906;2023-08-01T06:08:42;15.20;99.90
20057;DHT22;10189;49.546;7.906;2023-08-01T06:11:09;15.20;99.90
20057;DHT22;10189;49.546;7.906;2023-08-01T06:13:35;15.30;99.90
20057;DHT22;10189;49.546;7.906;2023-08-01T06:16:00;15.30;99.90
20057;DHT22;10189;49.546;7.906;2023-08-01T06:18:26;15.40;99.90
20057;DHT22;10189;49.546;7.906;2023-08-01T06:20:52;15.40;99.90
20057;DHT22;10189;49.546;7.906;2023-08-01T06:23:18;15.40;99.90
20057;DHT22;10189;49.546;7.906;2023-08-01T06:25:44;15.50;99.90
20057;DHT22;10189;49.546;7.906;2023-08-01T06:28:10;15.60;99.90
20057;DHT22;10189;49.546;7.906;2023-08-01T06:30:35;15.70;99.90
20057;DHT22;10189;49.546;7.906;2023-08-01T06:33:01;15.80;99.90
20057;DHT22;10189;49.546;7.906;2023-08-01T06:35:27;15.90;99.90
20057;DHT22;10189;49.546;7.906;2023-08-01T06:37:53;16.00;99.90
20057;DHT22;10189;49.546;7.906;2023-08-01T06:40:19;16.10;99.90
20057;DHT22;10189;49.546;7.906;2023-08-01T06:42:44;16.30;99.90
20057;DHT22;10189;49.546;7.906;2023-08-01T06:45:10;16.50;99.90
20057;DHT22;10189;49.546;7.906;2023-08-01T06:47:36;16.70;99.90
20057;DHT22;10189;49.546;7.906;2023-08-01T06:50:02;16.90;98.80
20057;DHT22;10189;49.546;7.906;2023-08-01T06:52:28;17.00;98.90
20057;DHT22;10189;49.546;7.906;2023-08-01T06:54:54;17.20;98.00
20057;DHT22;10189;49.546;7.906;2023-08-01T06:57:20;17.20;96.80
20057;DHT22;10189;49.546;7.906;2023-08-01T06:59:45;17.20;97.30
20057;DHT22;10189;49.546;7.906;2023-08-01T07:02:11;17.20;98.30
20057;DHT22;10189;49.546;7.906;2023-08-01T07:04:37;17.10;97.00
20057;DHT22;10189;49.546;7.906;2023-08-01T07:07:04;17.00;98.10
20057;DHT22;10189;49.546;7.906;2023-08-01T07:09:30;17.00;98.30
20057;DHT22;10189;49.546;7.906;2023-08-01T07:11:56;17.00;97.60
20057;DHT22;10189;49.546;7.906;2023-08-01T07:14:22;17.00;98.00
20057;DHT22;10189;49.546;7.906;2023-08-01T07:16:47;16.90;98.00
20057;DHT22;10189;49.546;7.906;2023-08-01T07:19:13;16.80;97.90
20057;DHT22;10189;49.546;7.906;2023-08-01T07:21:39;16.70;98.70
20057;DHT22;10189;49.546;7.906;2023-08-01T07:24:05;16.70;99.00
20057;DHT22;10189;49.546;7.906;2023-08-01T07:26:31;16.50;98.80
20057;DHT22;10189;49.546;7.906;2023-08-01T07:28:57;16.50;99.90
20057;DHT22;10189;49.546;7.906;2023-08-01T07:31:23;16.50;99.90
20057;DHT22;10189;49.546;7.906;2023-08-01T07:33:49;16.60;99.90
20057;DHT22;10189;49.546;7.906;2023-08-01T07:36:15;16.70;99.90
20057;DHT22;10189;49.546;7.906;2023-08-01T07:38:41;16.80;99.90
20057;DHT22;10189;49.546;7.906;2023-08-01T07:41:06;16.80;99.10
20057;DHT22;10189;49.546;7.906;2023-08-01T07:43:33;16.60;99.80
20057;DHT22;10189;49.546;7.906;2023-08-01T07:45:59;16.40;99.90
20057;DHT22;10189;49.546;7.906;2023-08-01T07:48:25;16.30;99.90
20057;DHT22;10189;49.546;7.906;2023-08-01T07:50:51;16.00;99.90
20057;DHT22;10189;49.546;7.906;2023-08-01T07:53:17;15.90;99.90
20057;DHT22;10189;49.546;7.906;2023-08-01T07:55:43;15.80;99.80
20057;DHT22;10189;49.546;7.906;2023-08-01T07:58:09;15.70;99.90
20057;DHT22;10189;49.546;7.906;2023-08-01T08:00:35;15.80;99.90
20057;DHT22;10189;49.546;7.906;2023-08-01T08:03:01;15.90;99.90
20057;DHT22;10189;49.546;7.906;2023-08-01T08:05:27;16.20;99.90
20057;DHT22;10189;49.546;7.906;2023-08-01T08:07:53;16.50;99.90
20057;DHT22;10189;49.546;7.906;2023-08-01T08:10:19;16.90;99.80
20057;DHT22;10189;49.546;7.906;2023-08-01T08:12:44;17.20;96.90
20057;DHT22;10189;49.546;7.906;2023-08-01T08:15:10;17.50;97.80
20057;DHT22;10189;49.546;7.906;2023-08-01T08:17:39;17.70;91.60
20057;DHT22;10189;49.546;7.906;2023-08-01T08:20:05;17.80;90.60
20057;DHT22;10189;49.546;7.906;2023-08-01T08:22:31;18.00;94.80
20057;DHT22;10189;49.546;7.906;2023-08-01T08:24:57;18.40;90.80
20057;DHT22;10189;49.546;7.906;2023-08-01T08:27:23;18.40;88.60
20057;DHT22;10189;49.546;7.906;2023-08-01T08:29:50;18.30;88.10
20057;DHT22;10189;49.546;7.906;2023-08-01T08:32:16;18.30;90.60
20057;DHT22;10189;49.546;7.906;2023-08-01T08:34:42;18.50;88.80
20057;DHT22;10189;49.546;7.906;2023-08-01T08:37:07;18.70;91.40
20057;DHT22;10189;49.546;7.906;2023-08-01T08:39:33;19.00;90.70
20057;DHT22;10189;49.546;7.906;2023-08-01T08:41:59;19.10;86.20
20057;DHT22;10189;49.546;7.906;2023-08-01T08:44:25;19.20;86.50
20057;DHT22;10189;49.546;7.906;2023-08-01T08:46:55;19.10;85.00
20057;DHT22;10189;49.546;7.906;2023-08-01T08:49:29;18.80;83.20
20057;DHT22;10189;49.546;7.906;2023-08-01T08:51:58;18.90;85.20
20057;DHT22;10189;49.546;7.906;2023-08-01T08:54:25;19.10;82.50
20057;DHT22;10189;49.546;7.906;2023-08-01T08:56:52;19.40;78.40
20057;DHT22;10189;49.546;7.906;2023-08-01T08:59:20;19.30;76.40
20057;DHT22;10189;49.546;7.906;2023-08-01T09:01:46;18.90;79.30
20057;DHT22;10189;49.546;7.906;2023-08-01T09:04:13;19.00;78.50
20057;DHT22;10189;49.546;7.906;2023-08-01T09:06:46;19.00;78.50
20057;DHT22;10189;49.546;7.906;2023-08-01T09:09:15;18.70;78.90
20057;DHT22;10189;49.546;7.906;2023-08-01T09:11:46;18.80;81.70
20057;DHT22;10189;49.546;7.906;2023-08-01T09:14:14;19.00;78.90
20057;DHT22;10189;49.546;7.906;2023-08-01T09:16:41;19.00;80.30
20057;DHT22;10189;49.546;7.906;2023-08-01T09:19:08;19.00;79.70
20057;DHT22;10189;49.546;7.906;2023-08-01T09:21:36;18.60;77.30
20057;DHT22;10189;49.546;7.906;2023-08-01T09:24:13;18.60;76.80
20057;DHT22;10189;49.546;7.906;2023-08-01T09:26:41;18.40;79.30
20057;DHT22;10189;49.546;7.906;2023-08-01T09:29:08;18.60;77.90
20057;DHT22;10189;49.546;7.906;2023-08-01T09:31:37;18.60;79.20
20057;DHT22;10189;49.546;7.906;2023-08-01T09:34:19;18.50;78.10
20057;DHT22;10189;49.546;7.906;2023-08-01T09:36:46;18.30;77.80
20057;DHT22;10189;49.546;7.906;2023-08-01T09:39:20;18.50;79.20
20057;DHT22;10189;49.546;7.906;2023-08-01T09:41:58;19.10;78.60
20057;DHT22;10189;49.546;7.906;2023-08-01T09:44:26;19.30;78.00
20057;DHT22;10189;49.546;7.906;2023-08-01T09:47:04;19.70;78.40
20057;DHT22;10189;49.546;7.906;2023-08-01T09:49:32;20.10;73.10
20057;DHT22;10189;49.546;7.906;2023-08-01T09:51:59;20.10;69.90
20057;DHT22;10189;49.546;7.906;2023-08-01T09:54:27;19.80;69.20
20057;DHT22;10189;49.546;7.906;2023-08-01T09:56:54;19.30;70.60
20057;DHT22;10189;49.546;7.906;2023-08-01T09:59:26;18.90;72.70
20057;DHT22;10189;49.546;7.906;2023-08-01T10:01:54;18.50;76.10
20057;DHT22;10189;49.546;7.906;2023-08-01T10:04:26;18.40;77.00
20057;DHT22;10189;49.546;7.906;2023-08-01T10:06:58;18.10;77.10
20057;DHT22;10189;49.546;7.906;2023-08-01T10:09:25;18.00;78.90
20057;DHT22;10189;49.546;7.906;2023-08-01T10:11:56;17.60;83.60
20057;DHT22;10189;49.546;7.906;2023-08-01T10:14:23;16.90;81.70
20057;DHT22;10189;49.546;7.906;2023-08-01T10:16:51;16.60;82.50
20057;DHT22;10189;49.546;7.906;2023-08-01T10:19:17;16.60;81.90
20057;DHT22;10189;49.546;7.906;2023-08-01T10:21:47;16.50;82.20
20057;DHT22;10189;49.546;7.906;2023-08-01T10:24:14;16.60;81.20
20057;DHT22;10189;49.546;7.906;2023-08-01T10:26:40;16.80;80.80
20057;DHT22;10189;49.546;7.906;2023-08-01T10:29:09;16.90;81.80
20057;DHT22;10189;49.546;7.906;2023-08-01T10:31:35;17.20;79.60
20057;DHT22;10189;49.546;7.906;2023-08-01T10:34:06;17.70;78.60
20057;DHT22;10189;49.546;7.906;2023-08-01T10:36:38;18.10;77.90
20057;DHT22;10189;49.546;7.906;2023-08-01T10:39:04;18.40;75.30
20057;DHT22;10189;49.546;7.906;2023-08-01T10:41:34;18.60;76.00
20057;DHT22;10189;49.546;7.906;2023-08-01T10:44:11;18.80;77.70
20057;DHT22;10189;49.546;7.906;2023-08-01T10:46:52;18.80;79.00
20057;DHT22;10189;49.546;7.906;2023-08-01T10:49:21;19.00;77.80
20057;DHT22;10189;49.546;7.906;2023-08-01T10:52:18;19.20;72.40
20057;DHT22;10189;49.546;7.906;2023-08-01T10:54:46;19.20;78.10
20057;DHT22;10189;49.546;7.906;2023-08-01T10:57:16;19.50;74.30
20057;DHT22;10189;49.546;7.906;2023-08-01T10:59:43;19.50;73.50
20057;DHT22;10189;49.546;7.906;2023-08-01T11:02:10;19.50;70.10
20057;DHT22;10189;49.546;7.906;2023-08-01T11:04:36;19.50;72.90
20057;DHT22;10189;49.546;7.906;2023-08-01T11:07:04;19.70;70.50
20057;DHT22;10189;49.546;7.906;2023-08-01T11:09:30;19.50;69.70
20057;DHT22;10189;49.546;7.906;2023-08-01T11:11:58;19.40;70.50
20057;DHT22;10189;49.546;7.906;2023-08-01T11:14:27;19.40;71.40
20057;DHT22;10189;49.546;7.906;2023-08-01T11:16:55;19.60;71.50
20057;DHT22;10189;49.546;7.906;2023-08-01T11:19:29;19.80;69.10
20057;DHT22;10189;49.546;7.906;2023-08-01T11:21:56;19.70;70.70
20057;DHT22;10189;49.546;7.906;2023-08-01T11:24:24;19.70;68.30
20057;DHT22;10189;49.546;7.906;2023-08-01T11:26:52;20.00;67.60
20057;DHT22;10189;49.546;7.906;2023-08-01T11:29:20;20.20;69.80
20057;DHT22;10189;49.546;7.906;2023-08-01T11:31:53;20.50;71.90
20057;DHT22;10189;49.546;7.906;2023-08-01T11:34:21;21.00;70.20
20057;DHT22;10189;49.546;7.906;2023-08-01T11:36:47;21.20;66.00
20057;DHT22;10189;49.546;7.906;2023-08-01T11:39:15;21.10;67.00
20057;DHT22;10189;49.546;7.906;2023-08-01T11:41:42;21.10;66.20
20057;DHT22;10189;49.546;7.906;2023-08-01T11:44:08;21.10;65.30
20057;DHT22;10189;49.546;7.906;2023-08-01T11:46:37;20.90;67.50
20057;DHT22;10189;49.546;7.906;2023-08-01T11:49:06;20.90;65.50
20057;DHT22;10189;49.546;7.906;2023-08-01T11:51:42;21.10;66.90
20057;DHT22;10189;49.546;7.906;2023-08-01T11:54:09;21.50;66.10
20057;DHT22;10189;49.546;7.906;2023-08-01T11:56:41;21.40;62.80
20057;DHT22;10189;49.546;7.906;2023-08-01T11:59:11;21.40;62.70
20057;DHT22;10189;49.546;7.906;2023-08-01T12:01:46;21.40;61.00
20057;DHT22;10189;49.546;7.906;2023-08-01T12:04:24;21.40;61.10
20057;DHT22;10189;49.546;7.906;2023-08-01T12:06:51;21.70;63.80
20057;DHT22;10189;49.546;7.906;2023-08-01T12:09:19;21.40;61.90
20057;DHT22;10189;49.546;7.906;2023-08-01T12:11:46;21.20;62.50
20057;DHT22;10189;49.546;7.906;2023-08-01T12:14:12;21.30;62.80
20057;DHT22;10189;49.546;7.906;2023-08-01T12:16:40;21.50;65.90
20057;DHT22;10189;49.546;7.906;2023-08-01T12:19:10;21.70;60.00
20057;DHT22;10189;49.546;7.906;2023-08-01T12:21:36;21.70;61.50
20057;DHT22;10189;49.546;7.906;2023-08-01T12:24:03;21.70;61.40
20057;DHT22;10189;49.546;7.906;2023-08-01T12:26:29;21.40;60.80
20057;DHT22;10189;49.546;7.906;2023-08-01T12:28:55;20.90;61.60
20057;DHT22;10189;49.546;7.906;2023-08-01T12:31:22;20.80;63.60
20057;DHT22;10189;49.546;7.906;2023-08-01T12:33:48;20.60;64.30
20057;DHT22;10189;49.546;7.906;2023-08-01T12:36:15;20.20;65.70
20057;DHT22;10189;49.546;7.906;2023-08-01T12:38:41;20.00;66.80
20057;DHT22;10189;49.546;7.906;2023-08-01T12:41:07;20.20;69.80
20057;DHT22;10189;49.546;7.906;2023-08-01T12:43:33;20.60;66.10
20057;DHT22;10189;49.546;7.906;2023-08-01T12:45:59;21.20;65.60
20057;DHT22;10189;49.546;7.906;2023-08-01T12:48:26;21.50;63.40
20057;DHT22;10189;49.546;7.906;2023-08-01T12:50:53;21.60;64.10
20057;DHT22;10189;49.546;7.906;2023-08-01T12:53:22;21.20;62.90
20057;DHT22;10189;49.546;7.906;2023-08-01T12:55:52;20.60;65.10
20057;DHT22;10189;49.546;7.906;2023-08-01T12:58:18;20.60;69.40
20057;DHT22;10189;49.546;7.906;2023-08-01T13:00:44;20.80;65.40
20057;DHT22;10189;49.546;7.906;2023-08-01T13:03:11;21.00;65.30
20057;DHT22;10189;49.546;7.906;2023-08-01T13:05:39;21.20;64.40
20057;DHT22;10189;49.546;7.906;2023-08-01T13:08:06;20.90;62.20
20057;DHT22;10189;49.546;7.906;2023-08-01T13:10:37;20.80;62.30
20057;DHT22;10189;49.546;7.906;2023-08-01T13:13:04;20.70;64.10
20057;DHT22;10189;49.546;7.906;2023-08-01T13:15:31;20.70;62.60
20057;DHT22;10189;49.546;7.906;2023-08-01T13:17:57;20.70;64.80
20057;DHT22;10189;49.546;7.906;2023-08-01T13:20:23;20.80;61.20
20057;DHT22;10189;49.546;7.906;2023-08-01T13:22:50;20.70;61.90
20057;DHT22;10189;49.546;7.906;2023-08-01T13:25:17;20.80;62.20
20057;DHT22;10189;49.546;7.906;2023-08-01T13:27:43;20.60;62.30
20057;DHT22;10189;49.546;7.906;2023-08-01T13:30:09;20.70;65.30
20057;DHT22;10189;49.546;7.906;2023-08-01T13:32:40;21.00;64.70
20057;DHT22;10189;49.546;7.906;2023-08-01T13:35:07;21.50;62.50
20057;DHT22;10189;49.546;7.906;2023-08-01T13:37:32;21.50;59.40
20057;DHT22;10189;49.546;7.906;2023-08-01T13:39:58;21.80;61.50
20057;DHT22;10189;49.546;7.906;2023-08-01T13:42:24;21.90;59.70
20057;DHT22;10189;49.546;7.906;2023-08-01T13:44:50;22.00;60.40
20057;DHT22;10189;49.546;7.906;2023-08-01T13:47:16;22.10;60.60
20057;DHT22;10189;49.546;7.906;2023-08-01T13:49:42;22.30;58.80
20057;DHT22;10189;49.546;7.906;2023-08-01T13:52:07;22.50;57.50
20057;DHT22;10189;49.546;7.906;2023-08-01T13:54:33;22.40;58.20
20057;DHT22;10189;49.546;7.906;2023-08-01T13:57:00;22.70;57.20
20057;DHT22;10189;49.546;7.906;2023-08-01T13:59:26;22.70;54.50
20057;DHT22;10189;49.546;7.906;2023-08-01T14:01:52;22.60;55.40
20057;DHT22;10189;49.546;7.906;2023-08-01T14:04:18;22.40;55.90
20057;DHT22;10189;49.546;7.906;2023-08-01T14:06:46;22.20;55.00
20057;DHT22;10189;49.546;7.906;2023-08-01T14:09:12;22.10;55.90
20057;DHT22;10189;49.546;7.906;2023-08-01T14:11:40;22.00;54.90
20057;DHT22;10189;49.546;7.906;2023-08-01T14:14:06;22.10;56.80
20057;DHT22;10189;49.546;7.906;2023-08-01T14:16:32;22.40;56.60
20057;DHT22;10189;49.546;7.906;2023-08-01T14:19:01;22.70;58.50
20057;DHT22;10189;49.546;7.906;2023-08-01T14:21:26;22.70;55.00
20057;DHT22;10189;49.546;7.906;2023-08-01T14:23:52;22.80;56.20
20057;DHT22;10189;49.546;7.906;2023-08-01T14:26:18;23.00;56.40
20057;DHT22;10189;49.546;7.906;2023-08-01T14:28:44;23.00;52.60
20057;DHT22;10189;49.546;7.906;2023-08-01T14:31:11;22.90;53.40
20057;DHT22;10189;49.546;7.906;2023-08-01T14:33:37;22.50;53.50
20057;DHT22;10189;49.546;7.906;2023-08-01T14:36:08;22.60;54.60
20057;DHT22;10189;49.546;7.906;2023-08-01T14:38:34;22.90;54.20
20057;DHT22;10189;49.546;7.906;2023-08-01T14:41:02;23.20;53.90
20057;DHT22;10189;49.546;7.906;2023-08-01T14:43:28;23.50;52.80
20057;DHT22;10189;49.546;7.906;2023-08-01T14:45:54;23.00;52.70
20057;DHT22;10189;49.546;7.906;2023-08-01T14:48:19;22.60;52.40
20057;DHT22;10189;49.546;7.906;2023-08-01T14:50:46;22.20;53.50
20057;DHT22;10189;49.546;7.906;2023-08-01T14:53:12;21.80;54.70
20057;DHT22;10189;49.546;7.906;2023-08-01T14:55:38;21.80;55.90
20057;DHT22;10189;49.546;7.906;2023-08-01T14:58:04;21.80;56.10
20057;DHT22;10189;49.546;7.906;2023-08-01T15:00:35;21.70;56.30
20057;DHT22;10189;49.546;7.906;2023-08-01T15:03:01;21.80;55.20
20057;DHT22;10189;49.546;7.906;2023-08-01T15:05:27;21.60;54.30
20057;DHT22;10189;49.546;7.906;2023-08-01T15:07:53;21.70;55.80
20057;DHT22;10189;49.546;7.906;2023-08-01T15:10:19;21.70;56.00
20057;DHT22;10189;49.546;7.906;2023-08-01T15:12:45;21.50;55.60
20057;DHT22;10189;49.546;7.906;2023-08-01T15:15:10;21.20;56.60
20057;DHT22;10189;49.546;7.906;2023-08-01T15:17:36;21.10;56.60
20057;DHT22;10189;49.546;7.906;2023-08-01T15:20:02;20.80;57.60
20057;DHT22;10189;49.546;7.906;2023-08-01T15:22:29;20.80;58.70
20057;DHT22;10189;49.546;7.906;2023-08-01T15:24:54;20.70;58.30
20057;DHT22;10189;49.546;7.906;2023-08-01T15:27:20;20.50;58.90